createdAt,value
2019-05-19T00:01:45.420Z,11.02
2019-05-19T00:04:17.357Z,11.07
2019-05-19T00:06:48.998Z,11.15
2019-05-19T00:09:20.725Z,11.27
2019-05-19T00:11:52.478Z,11.37
2019-05-19T00:14:24.022Z,11.43
2019-05-19T00:16:55.654Z,11.47
2019-05-19T00:19:27.331Z,11.51
2019-05-19T00:22:00.392Z,11.52
2019-05-19T00:24:31.938Z,11.54
2019-05-19T00:27:03.552Z,11.58
2019-05-19T00:29:35.395Z,11.61
2019-05-19T00:32:07.042Z,11.55
2019-05-19T00:34:38.582Z,11.46
2019-05-19T00:37:10.327Z,11.33
2019-05-19T00:39:42.070Z,11.25
2019-05-19T00:42:13.828Z,11.22
2019-05-19T00:44:45.569Z,11.32
2019-05-19T00:47:17.113Z,11.34
2019-05-19T00:49:48.667Z,11.35
2019-05-19T00:52:20.324Z,11.34
2019-05-19T00:54:52.072Z,11.33
2019-05-19T00:57:25.924Z,11.35
2019-05-19T00:59:58.774Z,11.34
2019-05-19T01:02:31.284Z,11.32
2019-05-19T01:05:03.300Z,11.40
2019-05-19T01:07:35.277Z,11.46
2019-05-19T01:10:10.588Z,11.48
2019-05-19T01:12:42.139Z,11.57
2019-05-19T01:15:14.288Z,11.59
2019-05-19T01:17:45.902Z,11.60
2019-05-19T01:20:18.580Z,11.58
2019-05-19T01:22:50.228Z,11.51
2019-05-19T01:25:22.073Z,11.47
2019-05-19T01:27:53.621Z,11.37
2019-05-19T01:30:25.255Z,11.36
2019-05-19T01:32:56.803Z,11.30
2019-05-19T01:35:28.339Z,11.23
2019-05-19T01:38:00.189Z,11.21
2019-05-19T01:40:31.733Z,11.23
2019-05-19T01:43:03.284Z,11.24
2019-05-19T01:45:34.918Z,11.23
2019-05-19T01:48:09.731Z,11.19
2019-05-19T01:50:41.469Z,11.19
2019-05-19T01:53:13.220Z,11.16
2019-05-19T01:55:44.972Z,11.13
2019-05-19T01:58:16.721Z,11.17
2019-05-19T02:00:48.267Z,11.26
2019-05-19T02:03:20.009Z,11.27
2019-05-19T02:05:51.749Z,11.28
2019-05-19T02:08:23.500Z,11.32
2019-05-19T02:10:55.252Z,11.32
2019-05-19T02:13:27.011Z,11.35
2019-05-19T02:15:58.565Z,11.40
2019-05-19T02:18:30.215Z,11.43
2019-05-19T02:21:03.410Z,11.36
2019-05-19T02:23:34.961Z,11.39
2019-05-19T02:26:06.525Z,11.39
2019-05-19T02:28:38.173Z,11.35
2019-05-19T02:31:09.717Z,11.28
2019-05-19T02:33:41.355Z,11.25
2019-05-19T02:36:12.904Z,11.15
2019-05-19T02:38:44.452Z,11.06
2019-05-19T02:41:18.273Z,11.03
2019-05-19T02:43:53.101Z,10.98
2019-05-19T02:46:26.551Z,10.85
2019-05-19T02:49:00.537Z,10.91
2019-05-19T02:51:35.162Z,10.92
2019-05-19T02:54:09.235Z,10.81
2019-05-19T02:56:41.055Z,10.67
2019-05-19T02:59:14.050Z,10.68
2019-05-19T03:02:02.657Z,10.68
2019-05-19T03:04:34.305Z,10.66
2019-05-19T03:07:06.155Z,10.76
2019-05-19T03:09:37.903Z,10.78
2019-05-19T03:12:09.739Z,10.90
2019-05-19T03:14:41.485Z,10.98
2019-05-19T03:17:13.224Z,11.03
2019-05-19T03:19:44.789Z,10.95
2019-05-19T03:22:16.332Z,10.88
2019-05-19T03:24:47.890Z,10.92
2019-05-19T03:27:19.454Z,10.95
2019-05-19T03:29:52.634Z,11.08
2019-05-19T03:32:34.790Z,11.09
2019-05-19T03:35:06.685Z,11.18
2019-05-19T03:37:38.358Z,11.27
2019-05-19T03:40:12.058Z,11.37
2019-05-19T03:42:43.595Z,11.47
2019-05-19T03:45:15.136Z,11.49
2019-05-19T03:47:46.850Z,11.55
2019-05-19T03:50:18.689Z,11.63
2019-05-19T03:52:50.440Z,11.68
2019-05-19T03:55:21.986Z,12.23
2019-05-19T03:57:53.523Z,12.35
2019-05-19T04:00:25.533Z,13.30
2019-05-19T04:02:57.076Z,15.61
2019-05-19T04:05:29.225Z,17.21
2019-05-19T04:08:01.014Z,18.07
2019-05-19T04:10:32.750Z,18.81
2019-05-19T04:13:04.504Z,19.90
2019-05-19T04:15:36.246Z,20.53
2019-05-19T04:18:07.984Z,20.97
2019-05-19T04:20:39.729Z,21.72
2019-05-19T04:23:11.569Z,22.08
2019-05-19T04:25:43.312Z,22.23
2019-05-19T04:28:15.047Z,21.46
2019-05-19T04:30:46.801Z,19.50
2019-05-19T04:33:18.550Z,18.06
2019-05-19T04:35:51.934Z,17.79
2019-05-19T04:38:23.582Z,17.68
2019-05-19T04:40:55.418Z,19.14
2019-05-19T04:43:27.162Z,18.35
2019-05-19T04:45:58.902Z,17.76
2019-05-19T04:48:32.703Z,17.05
2019-05-19T04:51:07.255Z,16.74
2019-05-19T04:53:41.227Z,16.36
2019-05-19T04:56:14.551Z,16.06
2019-05-19T04:58:46.293Z,16.20
2019-05-19T05:01:18.913Z,16.13
2019-05-19T05:03:50.455Z,16.15
2019-05-19T05:06:22.298Z,16.20
2019-05-19T05:08:53.975Z,16.27
2019-05-19T05:11:25.719Z,16.31
2019-05-19T05:13:57.468Z,16.42
2019-05-19T05:16:29.211Z,16.45
2019-05-19T05:19:05.147Z,16.37
2019-05-19T05:21:36.719Z,16.35
2019-05-19T05:24:10.206Z,16.40
2019-05-19T09:25:58.327Z,22.96
2019-05-19T09:28:31.212Z,22.71
2019-05-19T09:31:02.987Z,22.60
2019-05-19T09:33:36.567Z,22.86
2019-05-19T09:36:22.221Z,22.88
2019-05-19T09:38:53.937Z,23.09
2019-05-19T09:41:26.051Z,23.04
2019-05-19T09:43:58.781Z,23.40
2019-05-19T09:46:32.449Z,23.76
2019-05-19T09:49:26.149Z,23.43
2019-05-19T09:51:57.879Z,23.41
2019-05-19T09:54:44.100Z,22.85
2019-05-19T09:57:19.423Z,22.96
2019-05-19T09:59:54.865Z,23.18
2019-05-19T10:02:26.697Z,23.28
2019-05-19T10:04:58.720Z,22.76
2019-05-19T10:07:40.988Z,22.68
2019-05-19T10:10:30.495Z,23.31
2019-05-19T10:13:02.193Z,24.23
2019-05-19T10:15:36.610Z,23.94
2019-05-19T10:18:11.891Z,23.91
2019-05-19T10:20:43.766Z,24.04
2019-05-19T10:23:15.545Z,23.84
2019-05-19T10:25:50.906Z,24.09
2019-05-19T10:28:23.595Z,24.28
2019-05-19T10:30:56.332Z,24.33
2019-05-19T10:33:29.576Z,24.60
2019-05-19T10:36:07.813Z,24.65
2019-05-19T10:38:39.985Z,25.27
2019-05-19T10:41:19.007Z,24.95
2019-05-19T10:43:54.195Z,25.17
2019-05-19T10:46:25.792Z,25.03
2019-05-19T10:48:57.663Z,24.95
2019-05-19T10:51:32.366Z,24.93
2019-05-19T10:54:05.775Z,25.08
2019-05-19T10:56:39.049Z,24.86
2019-05-19T10:59:12.554Z,25.12
2019-05-19T11:01:48.681Z,25.10
2019-05-19T11:04:22.118Z,25.28
2019-05-19T11:06:53.699Z,25.05
2019-05-19T11:09:26.990Z,24.93
2019-05-19T11:12:00.539Z,25.39
2019-05-19T11:14:32.204Z,25.21
2019-05-19T11:17:05.633Z,25.37
2019-05-19T11:19:37.490Z,25.57
2019-05-19T11:22:10.825Z,25.04
2019-05-19T11:24:44.062Z,25.23
2019-05-19T11:27:15.885Z,25.33
2019-05-19T11:29:48.516Z,25.40
2019-05-19T11:32:20.267Z,25.74
2019-05-19T11:34:52.043Z,25.29
2019-05-19T11:37:23.787Z,25.84
2019-05-19T11:39:55.574Z,25.68
2019-05-19T11:42:27.350Z,25.38
2019-05-19T11:44:59.104Z,25.57
2019-05-19T11:47:30.862Z,25.62
2019-05-19T11:50:02.662Z,25.65
2019-05-19T11:52:34.320Z,25.56
2019-05-19T11:55:09.408Z,25.88
2019-05-19T11:57:41.271Z,26.18
2019-05-19T12:00:14.029Z,26.69
2019-05-19T12:02:45.683Z,26.22
2019-05-19T12:05:19.141Z,26.28
2019-05-19T12:07:50.801Z,26.47
2019-05-19T12:10:22.569Z,26.41
2019-05-19T12:12:56.127Z,26.24
2019-05-19T12:15:27.975Z,26.05
2019-05-19T12:18:00.023Z,25.55
2019-05-19T12:20:32.022Z,25.45
2019-05-19T12:23:03.805Z,25.69
2019-05-19T12:25:35.496Z,25.94
2019-05-19T12:28:07.251Z,26.25
2019-05-19T12:30:42.898Z,25.88
2019-05-19T12:33:16.019Z,25.40
2019-05-19T12:35:47.685Z,25.43
2019-05-19T12:38:19.518Z,25.49
2019-05-19T12:40:52.739Z,25.80
2019-05-19T12:43:25.461Z,26.29
2019-05-19T12:45:57.334Z,26.56
2019-05-19T12:48:28.981Z,27.25
2019-05-19T12:51:01.937Z,26.96
2019-05-19T12:53:33.790Z,26.66
2019-05-19T12:56:05.630Z,26.35
2019-05-19T12:58:37.317Z,26.01
2019-05-19T13:01:09.103Z,25.92
2019-05-19T13:03:41.137Z,25.44
2019-05-19T13:06:12.909Z,25.10
2019-05-19T13:08:45.810Z,24.95
2019-05-19T13:11:17.597Z,24.84
2019-05-19T13:13:49.401Z,24.70
2019-05-19T13:16:21.110Z,24.59
2019-05-19T13:18:54.447Z,24.61
2019-05-19T13:21:27.794Z,24.64
2019-05-19T13:23:59.463Z,24.57
2019-05-19T13:26:31.238Z,24.57
2019-05-19T13:29:03.331Z,24.64
2019-05-19T13:31:35.831Z,24.41
2019-05-19T13:34:08.328Z,24.41
2019-05-19T13:36:40.495Z,24.52
2019-05-19T13:39:12.531Z,24.54
2019-05-19T13:41:44.304Z,24.45
2019-05-19T13:44:16.011Z,24.42
2019-05-19T13:46:49.148Z,24.37
2019-05-19T13:49:21.099Z,24.59
2019-05-19T13:51:52.866Z,24.57
2019-05-19T13:54:25.781Z,24.84
2019-05-19T13:57:11.271Z,24.75
2019-05-19T13:59:30.869Z,24.75
2019-05-19T14:02:03.188Z,24.78
2019-05-19T14:04:35.218Z,24.94
2019-05-19T14:07:08.896Z,24.81
2019-05-19T14:09:40.647Z,25.05
2019-05-19T14:12:13.271Z,25.15
2019-05-19T14:14:45.096Z,25.21
2019-05-19T14:17:20.021Z,25.15
2019-05-19T14:19:53.508Z,25.07
2019-05-19T14:22:25.255Z,25.18
2019-05-19T14:24:57.310Z,25.33
2019-05-19T14:27:30.682Z,25.43
2019-05-19T14:30:02.443Z,25.51
2019-05-19T14:32:34.125Z,25.66
2019-05-19T14:35:07.691Z,25.58
2019-05-19T14:37:39.301Z,25.54
2019-05-19T14:40:14.082Z,25.57
2019-05-19T14:42:50.504Z,25.72
2019-05-19T14:45:22.155Z,25.77
2019-05-19T14:47:53.898Z,25.95
2019-05-19T14:50:25.654Z,26.17
2019-05-19T14:52:59.372Z,26.32
2019-05-19T14:55:31.014Z,26.17
2019-05-19T14:58:02.749Z,26.15
2019-05-19T15:00:34.652Z,25.90
2019-05-19T15:03:06.277Z,26.15
2019-05-19T15:05:38.035Z,26.26
2019-05-19T15:08:11.052Z,26.48
2019-05-19T15:10:43.065Z,26.56
2019-05-19T15:13:14.655Z,26.42
2019-05-19T15:15:50.171Z,26.29
2019-05-19T15:18:23.267Z,26.34
2019-05-19T15:20:55.406Z,26.34
2019-05-19T15:23:28.972Z,26.29
2019-05-19T15:26:00.537Z,26.05
2019-05-19T15:28:32.449Z,25.94
2019-05-19T15:31:08.146Z,25.98
2019-05-19T15:33:44.954Z,25.82
2019-05-19T15:36:18.311Z,26.06
2019-05-19T15:38:56.376Z,25.63
2019-05-19T15:41:32.427Z,25.69
2019-05-19T15:44:04.730Z,25.84
2019-05-19T15:46:36.593Z,25.80
2019-05-19T15:49:08.318Z,25.21
2019-05-19T15:51:40.176Z,24.74
2019-05-19T15:54:11.935Z,24.13
2019-05-19T15:56:43.874Z,24.16
2019-05-19T15:59:15.696Z,23.84
2019-05-19T16:01:47.475Z,23.66
2019-05-19T16:04:19.211Z,23.52
2019-05-19T16:06:51.145Z,23.24
2019-05-19T16:09:23.326Z,23.09
2019-05-19T16:11:55.178Z,23.12
2019-05-19T16:14:27.020Z,22.85
2019-05-19T16:16:58.668Z,22.85
2019-05-19T16:19:30.721Z,22.85
2019-05-19T16:22:02.493Z,22.65
2019-05-19T16:24:36.615Z,22.35
2019-05-19T16:27:08.481Z,22.42
2019-05-19T16:29:40.239Z,22.29
2019-05-19T16:32:13.172Z,22.33
2019-05-19T16:34:45.868Z,22.22
2019-05-19T16:37:18.851Z,22.16
2019-05-19T16:39:50.606Z,22.02
2019-05-19T16:42:23.354Z,21.89
2019-05-19T16:44:55.099Z,21.80
2019-05-19T16:47:26.868Z,21.81
2019-05-19T16:49:58.523Z,21.72
2019-05-19T16:52:30.451Z,21.51
2019-05-19T16:55:18.762Z,21.44
2019-05-19T16:57:50.832Z,21.36
2019-05-19T17:00:24.747Z,21.28
2019-05-19T17:02:56.317Z,21.23
2019-05-19T17:05:28.238Z,21.17
2019-05-19T17:07:59.968Z,21.12
2019-05-19T17:10:33.220Z,21.03
2019-05-19T17:13:04.980Z,20.94
2019-05-19T17:15:36.760Z,20.86
2019-05-19T17:18:09.988Z,20.83
2019-05-19T17:20:41.847Z,20.80
2019-05-19T17:23:13.629Z,20.73
2019-05-19T17:25:45.357Z,20.74
2019-05-19T17:28:17.152Z,20.74
2019-05-19T17:30:48.921Z,20.74
2019-05-19T17:33:20.741Z,20.73
2019-05-19T17:35:53.404Z,20.71
2019-05-19T17:38:27.166Z,20.67
2019-05-19T17:40:58.805Z,20.63
2019-05-19T17:43:30.678Z,20.64
2019-05-19T17:46:02.445Z,20.60
2019-05-19T17:48:35.533Z,20.60
2019-05-19T17:51:07.654Z,20.58
2019-05-19T17:53:39.577Z,20.51
2019-05-19T17:56:14.727Z,20.38
2019-05-19T17:58:47.560Z,20.29
2019-05-19T18:01:19.119Z,20.24
2019-05-19T18:03:51.056Z,20.20
2019-05-19T18:06:22.792Z,20.12
2019-05-19T18:08:54.481Z,20.07
2019-05-19T18:11:27.473Z,20.02
2019-05-19T18:13:59.161Z,19.99
2019-05-19T18:16:30.897Z,19.93
2019-05-19T18:19:04.305Z,19.88
2019-05-19T18:21:36.003Z,19.85
2019-05-19T18:24:07.768Z,19.80
2019-05-19T18:26:42.381Z,19.74
2019-05-19T18:29:14.043Z,19.61
2019-05-19T18:31:45.766Z,19.55
2019-05-19T18:34:17.527Z,19.44
2019-05-19T18:36:52.006Z,19.40
2019-05-19T18:39:23.605Z,19.32
2019-05-19T18:41:55.240Z,19.23
2019-05-19T18:44:27.033Z,19.15
2019-05-19T18:46:59.440Z,18.99
2019-05-19T18:49:39.133Z,18.77
2019-05-19T18:52:16.439Z,18.57
2019-05-19T18:54:52.702Z,18.51
2019-05-19T18:57:30.106Z,18.40
2019-05-19T19:02:48.338Z,18.32
2019-05-19T19:05:20.110Z,18.27
2019-05-19T19:07:53.507Z,18.21
2019-05-19T19:10:25.170Z,18.18
2019-05-19T19:12:56.937Z,18.15
2019-05-19T19:15:28.683Z,18.11
2019-05-19T19:18:04.403Z,18.11
2019-05-19T19:20:36.319Z,18.11
2019-05-19T19:23:09.285Z,18.11
2019-05-19T19:25:42.253Z,18.08
2019-05-19T19:28:14.400Z,18.05
2019-05-19T19:30:50.243Z,17.98
2019-05-19T19:33:21.918Z,17.90
2019-05-19T19:35:56.769Z,17.85
2019-05-19T19:38:32.317Z,17.75
2019-05-19T19:41:05.330Z,17.70
2019-05-19T19:43:37.152Z,17.66
2019-05-19T19:46:08.825Z,17.59
2019-05-19T19:48:40.588Z,17.56
2019-05-19T19:51:13.455Z,17.51
2019-05-19T19:53:48.769Z,17.47
2019-05-19T19:56:22.829Z,17.43
2019-05-19T19:58:59.147Z,17.41
2019-05-19T20:01:31.078Z,17.39
2019-05-19T20:04:03.322Z,17.37
2019-05-19T20:06:34.913Z,17.32
2019-05-19T20:09:07.964Z,17.24
2019-05-19T20:11:40.951Z,17.17
2019-05-19T20:14:12.630Z,17.08
2019-05-19T20:16:44.368Z,17.00
2019-05-19T20:19:22.251Z,16.86
2019-05-19T20:21:54.146Z,16.73
2019-05-19T20:24:33.844Z,16.59
2019-05-19T20:27:07.149Z,16.48
2019-05-19T20:29:38.799Z,16.41
2019-05-19T20:32:13.329Z,16.37
2019-05-19T20:34:45.082Z,16.38
2019-05-19T20:37:17.994Z,16.38
2019-05-19T20:39:52.541Z,16.36
2019-05-19T20:42:25.887Z,16.35
2019-05-19T20:45:03.106Z,16.37
2019-05-19T20:47:37.047Z,16.40
2019-05-19T20:50:10.886Z,16.34
2019-05-19T20:52:43.733Z,16.32
2019-05-19T20:55:16.369Z,16.27
2019-05-19T20:57:49.662Z,16.18
2019-05-19T21:00:23.062Z,16.17
2019-05-19T21:02:54.612Z,16.13
2019-05-19T21:05:28.523Z,15.91
2019-05-19T21:08:02.445Z,15.64
2019-05-19T21:10:38.489Z,15.53
2019-05-19T21:13:13.912Z,15.39
2019-05-19T21:15:45.474Z,15.36
2019-05-19T21:18:17.187Z,15.31
2019-05-19T21:20:49.171Z,15.23
2019-05-19T21:23:21.332Z,15.11
2019-05-19T21:25:53.078Z,14.94
2019-05-19T21:28:26.224Z,14.79
2019-05-19T21:31:06.064Z,14.67
2019-05-19T21:33:31.214Z,14.52
2019-05-19T21:36:02.953Z,14.42
2019-05-19T21:38:34.672Z,14.36
2019-05-19T21:41:08.334Z,14.32
2019-05-19T21:43:40.059Z,14.28
2019-05-19T21:46:11.815Z,14.25
2019-05-19T21:48:43.529Z,14.17
2019-05-19T21:51:17.849Z,14.11
2019-05-19T21:53:50.859Z,14.07
2019-05-19T21:56:22.584Z,14.07
2019-05-19T21:58:54.318Z,14.07
2019-05-19T22:01:26.796Z,14.01
2019-05-19T22:03:58.421Z,13.99
2019-05-19T22:06:31.824Z,13.91
2019-05-19T22:09:04.385Z,13.83
2019-05-19T22:11:36.098Z,13.82
2019-05-19T22:14:07.917Z,13.84
2019-05-19T22:16:39.668Z,13.88
2019-05-19T22:19:11.399Z,13.86
2019-05-19T22:21:43.250Z,13.77
2019-05-19T22:24:14.973Z,13.65
2019-05-19T22:26:46.704Z,13.56
2019-05-19T22:29:18.439Z,13.52
2019-05-19T22:31:50.279Z,13.51
2019-05-19T22:34:22.025Z,13.52
2019-05-19T22:36:53.939Z,13.53
2019-05-19T22:39:25.764Z,13.46
2019-05-19T22:42:00.096Z,13.46
2019-05-19T22:44:31.719Z,13.45
2019-05-19T22:47:03.575Z,13.39
2019-05-19T22:49:35.278Z,13.32
2019-05-19T22:52:07.021Z,13.18
2019-05-19T22:54:38.843Z,13.14
2019-05-19T22:57:10.586Z,13.07
2019-05-19T22:59:42.307Z,12.99
2019-05-19T23:02:14.052Z,12.96
2019-05-19T23:04:45.885Z,12.96
2019-05-19T23:07:17.666Z,12.95
2019-05-19T23:09:49.382Z,12.93
2019-05-19T23:12:21.131Z,12.94
2019-05-19T23:14:54.323Z,12.96
2019-05-19T23:17:28.085Z,12.95
2019-05-19T23:19:59.803Z,12.93
2019-05-19T23:22:31.562Z,12.88
2019-05-19T23:25:03.757Z,12.80
2019-05-19T23:27:35.710Z,12.76
2019-05-19T23:30:11.183Z,12.75
2019-05-19T23:32:42.913Z,12.71
2019-05-19T23:35:14.700Z,12.70
2019-05-19T23:37:47.635Z,12.65
2019-05-19T23:40:19.363Z,12.58
2019-05-19T23:42:52.955Z,12.53
2019-05-19T23:45:24.678Z,12.45
2019-05-19T23:47:56.530Z,12.46
2019-05-19T23:50:28.257Z,12.52
2019-05-19T23:53:00.005Z,12.55
2019-05-19T23:55:32.605Z,12.60
2019-05-19T23:58:04.448Z,12.58
